Time;durP1;ratioP1;P1;durP2;ratioP2;P2;SDS_P1;SDS_P2;PMS_P1;PMS_P2;Temp;Humidity;BMP_temperature;BMP_pressure;BME280_temperature;BME280_humidity;BME280_pressure;Samples;Min_cycle;Max_cycle;Signal;HPM_P1;HPM_P2
2022/03/29 00:01:21;;;;;;;18.57;11.00;;;4.70;99.90;;;;;;5073594;28;20283;-84
2022/03/29 00:03:49;;;;;;;19.17;10.43;;;4.70;99.90;;;;;;5073988;28;20194;-84
2022/03/29 00:06:16;;;;;;;17.73;10.47;;;4.70;99.90;;;;;;5073892;28;20525;-84
2022/03/29 00:08:43;;;;;;;23.23;11.10;;;4.80;1.00;;;;;;5072518;28;20672;-84
2022/03/29 00:11:12;;;;;;;21.90;10.80;;;4.80;1.00;;;;;;5073937;28;20280;-84
2022/03/29 00:13:39;;;;;;;18.90;10.83;;;5.00;1.00;;;;;;5073293;28;20200;-83
2022/03/29 00:16:06;;;;;;;22.23;11.00;;;5.00;1.00;;;;;;5073171;28;20605;-84
2022/03/29 00:18:33;;;;;;;19.40;10.87;;;5.10;1.00;;;;;;5073927;28;20202;-85
2022/03/29 00:21:02;;;;;;;19.73;10.43;;;5.20;1.00;;;;;;5073160;28;20607;-84
2022/03/29 00:23:29;;;;;;;19.83;10.67;;;5.30;1.00;;;;;;5073235;28;20201;-84
2022/03/29 00:25:56;;;;;;;19.53;11.17;;;5.40;1.00;;;;;;5072889;28;20199;-84
2022/03/29 00:28:23;;;;;;;21.37;11.20;;;5.40;1.00;;;;;;5073461;28;20192;-84
2022/03/29 00:30:50;;;;;;;21.80;12.40;;;5.50;1.00;;;;;;5073012;28;20668;-84
2022/03/29 00:33:17;;;;;;;21.20;11.67;;;5.60;1.00;;;;;;5073449;28;20241;-84
2022/03/29 00:35:44;;;;;;;19.93;11.97;;;5.70;1.00;;;;;;5072612;28;20188;-84
2022/03/29 00:38:14;;;;;;;21.53;12.03;;;5.80;1.00;;;;;;5073005;28;20195;-84
2022/03/29 00:40:41;;;;;;;19.10;11.30;;;5.80;1.00;;;;;;5072976;28;20583;-84
2022/03/29 00:43:08;;;;;;;22.03;12.20;;;5.90;1.00;;;;;;5072529;28;20188;-84
2022/03/29 00:45:36;;;;;;;20.40;10.73;;;6.00;1.00;;;;;;5073031;28;20188;-84
2022/03/29 00:48:03;;;;;;;22.07;11.43;;;6.00;1.00;;;;;;5073209;28;20192;-83
2022/03/29 00:50:31;;;;;;;18.10;11.47;;;6.10;1.00;;;;;;5072966;28;20212;-84
2022/03/29 00:52:58;;;;;;;21.80;11.57;;;6.10;1.00;;;;;;5072939;28;20253;-84
2022/03/29 00:55:26;;;;;;;19.20;11.80;;;6.20;1.00;;;;;;5072807;28;20195;-84
2022/03/29 00:57:54;;;;;;;18.73;11.43;;;6.20;1.00;;;;;;5072688;28;20697;-84
2022/03/29 01:00:21;;;;;;;19.27;11.70;;;6.20;1.00;;;;;;5073403;28;20187;-83
2022/03/29 01:02:48;;;;;;;24.07;12.80;;;6.30;1.00;;;;;;5072634;28;20192;-84
2022/03/29 01:05:15;;;;;;;23.70;12.30;;;6.30;1.00;;;;;;5072595;28;20188;-84
2022/03/29 01:07:42;;;;;;;21.90;12.23;;;6.30;1.00;;;;;;5072726;28;20282;-84
2022/03/29 01:10:10;;;;;;;22.83;13.17;;;6.30;1.00;;;;;;5072324;28;20688;-85
2022/03/29 01:12:39;;;;;;;20.10;12.27;;;6.40;1.00;;;;;;5072944;28;20269;-84
2022/03/29 01:15:09;;;;;;;20.13;12.53;;;6.40;1.00;;;;;;5072176;28;20192;-84
2022/03/29 01:17:39;;;;;;;21.23;13.07;;;6.40;1.00;;;;;;5072776;28;20231;-84
2022/03/29 01:20:09;;;;;;;21.27;13.17;;;6.40;1.00;;;;;;5072643;28;20188;-84
2022/03/29 01:22:41;;;;;;;21.97;12.60;;;6.40;1.00;;;;;;5072442;28;20306;-84
2022/03/29 01:25:10;;;;;;;19.87;12.63;;;6.40;1.00;;;;;;5072603;28;20177;-84
2022/03/29 01:27:38;;;;;;;23.80;12.43;;;6.50;1.00;;;;;;5072779;28;20196;-83
2022/03/29 01:30:06;;;;;;;21.53;13.10;;;6.50;1.00;;;;;;5072582;28;20195;-84
2022/03/29 01:32:35;;;;;;;22.30;13.63;;;6.50;1.00;;;;;;5072439;28;20200;-84
2022/03/29 01:35:03;;;;;;;22.83;14.07;;;6.60;1.00;;;;;;5071957;28;20191;-84
2022/03/29 01:37:30;;;;;;;20.30;12.97;;;6.60;1.00;;;;;;5072002;28;20675;-83
2022/03/29 01:39:59;;;;;;;21.93;12.90;;;6.60;1.00;;;;;;5060647;28;20197;-83
2022/03/29 01:42:26;;;;;;;21.73;13.20;;;6.60;1.00;;;;;;5052192;28;20212;-85
2022/03/29 01:44:53;;;;;;;24.60;13.80;;;6.60;1.00;;;;;;5069169;28;20200;-84
2022/03/29 01:47:22;;;;;;;22.43;14.17;;;6.60;1.00;;;;;;5072190;28;20200;-84
2022/03/29 01:49:50;;;;;;;18.67;12.20;;;6.60;1.00;;;;;;5071963;28;20197;-84
2022/03/29 01:52:17;;;;;;;22.30;12.60;;;6.60;1.00;;;;;;5072332;28;20254;-84
2022/03/29 01:54:45;;;;;;;22.27;13.57;;;6.60;1.00;;;;;;5074669;28;20191;-84
2022/03/29 01:57:13;;;;;;;22.13;12.63;;;6.70;1.00;;;;;;5076383;28;20196;-84
2022/03/29 02:02:24;;;;;;;22.63;13.13;;;6.60;1.00;;;;;;5076131;28;20277;-84
2022/03/29 02:04:51;;;;;;;23.57;13.33;;;6.60;1.00;;;;;;5076277;28;20329;-84
2022/03/29 02:07:18;;;;;;;21.60;13.00;;;6.60;1.00;;;;;;5076162;28;20231;-84
2022/03/29 02:09:46;;;;;;;23.27;13.67;;;6.60;1.00;;;;;;5075895;28;20228;-84
2022/03/29 02:12:14;;;;;;;24.90;14.20;;;6.60;1.00;;;;;;5076050;28;20198;-83
2022/03/29 02:14:41;;;;;;;23.03;13.77;;;6.60;1.00;;;;;;5075905;28;20246;-83
2022/03/29 02:17:09;;;;;;;19.93;13.27;;;6.60;1.00;;;;;;5075760;28;20589;-85
2022/03/29 02:19:36;;;;;;;23.40;13.17;;;6.70;99.90;;;;;;5076107;28;20283;-84
2022/03/29 02:22:03;;;;;;;26.10;14.23;;;6.70;99.90;;;;;;5075847;28;20220;-83
2022/03/29 02:24:30;;;;;;;26.73;14.60;;;6.70;99.90;;;;;;5075656;28;20250;-83
2022/03/29 02:26:57;;;;;;;20.77;13.10;;;6.70;99.90;;;;;;5075860;28;20199;-82
2022/03/29 02:29:25;;;;;;;25.73;14.50;;;6.70;99.90;;;;;;5075811;28;20199;-83
2022/03/29 02:31:52;;;;;;;29.27;18.40;;;6.60;99.90;;;;;;5075672;28;20254;-83
2022/03/29 02:34:19;;;;;;;25.67;14.60;;;6.70;99.90;;;;;;5075243;28;20252;-82
2022/03/29 02:36:46;;;;;;;24.70;14.03;;;6.70;99.90;;;;;;5075561;28;20192;-83
2022/03/29 02:39:13;;;;;;;23.47;13.47;;;6.70;99.90;;;;;;5075926;28;20196;-82
2022/03/29 02:41:40;;;;;;;22.83;13.77;;;6.70;99.90;;;;;;5075443;28;20804;-82
2022/03/29 02:44:07;;;;;;;22.17;13.30;;;6.60;99.90;;;;;;5075321;28;20193;-82
2022/03/29 02:46:36;;;;;;;22.87;14.10;;;6.70;99.90;;;;;;5075430;28;20228;-83
2022/03/29 02:49:03;;;;;;;24.53;14.30;;;6.70;99.90;;;;;;5075325;28;20208;-82
2022/03/29 02:51:30;;;;;;;24.13;14.13;;;6.60;99.90;;;;;;5075050;28;20576;-82
2022/03/29 02:53:57;;;;;;;22.80;13.80;;;6.60;99.90;;;;;;5075275;28;20218;-83
2022/03/29 02:56:24;;;;;;;24.53;15.27;;;6.60;99.90;;;;;;5074711;28;20242;-82
2022/03/29 02:58:51;;;;;;;27.73;15.07;;;6.70;99.90;;;;;;5075393;28;20204;-83
2022/03/29 03:01:18;;;;;;;23.50;14.83;;;6.70;99.90;;;;;;5075515;28;20220;-82
2022/03/29 03:03:46;;;;;;;28.03;14.47;;;6.70;99.90;;;;;;5074855;28;20592;-82
2022/03/29 03:06:14;;;;;;;25.70;15.03;;;6.70;99.90;;;;;;5073894;28;20193;-83
2022/03/29 03:08:41;;;;;;;29.00;15.03;;;6.70;99.90;;;;;;5075101;28;20196;-83
2022/03/29 03:11:08;;;;;;;28.90;16.03;;;6.70;99.90;;;;;;5075156;28;20220;-83
2022/03/29 03:13:35;;;;;;;27.67;15.87;;;6.70;99.90;;;;;;5074827;28;20247;-83
2022/03/29 03:16:02;;;;;;;28.10;15.93;;;6.70;99.90;;;;;;5074302;28;20194;-83
2022/03/29 03:18:29;;;;;;;27.67;17.03;;;6.70;99.90;;;;;;5075110;28;20552;-82
2022/03/29 03:20:57;;;;;;;27.57;15.93;;;6.70;99.90;;;;;;5074634;28;20238;-83
2022/03/29 03:23:25;;;;;;;28.87;15.47;;;6.80;99.90;;;;;;5074341;28;20208;-83
2022/03/29 03:25:54;;;;;;;25.20;15.03;;;6.70;99.90;;;;;;5074639;28;20211;-82
2022/03/29 03:28:21;;;;;;;26.03;15.00;;;6.70;99.90;;;;;;5074742;28;20254;-83
2022/03/29 03:30:48;;;;;;;25.40;14.77;;;6.70;99.90;;;;;;5074966;28;20197;-83
2022/03/29 03:33:15;;;;;;;26.00;14.73;;;6.70;99.90;;;;;;5074226;28;20201;-84
2022/03/29 03:35:42;;;;;;;28.40;15.57;;;6.70;99.90;;;;;;5073934;28;20596;-82
2022/03/29 03:38:11;;;;;;;27.00;14.93;;;6.70;99.90;;;;;;5074514;28;20196;-83
2022/03/29 03:40:38;;;;;;;26.30;14.63;;;6.70;99.90;;;;;;5074095;28;20718;-82
2022/03/29 03:43:05;;;;;;;25.50;14.10;;;6.60;99.90;;;;;;5073879;28;20227;-82
2022/03/29 03:45:32;;;;;;;28.03;15.40;;;6.60;99.90;;;;;;5074004;28;20243;-83
2022/03/29 03:47:59;;;;;;;27.30;14.93;;;6.70;99.90;;;;;;5074057;28;20600;-83
2022/03/29 03:50:26;;;;;;;29.63;14.80;;;6.60;99.90;;;;;;5074247;28;20250;-82
2022/03/29 03:52:54;;;;;;;28.97;14.60;;;6.60;99.90;;;;;;5074260;28;20253;-83
2022/03/29 03:55:22;;;;;;;;;;;6.60;99.90;;;;;;5074437;28;20196;-83
2022/03/29 03:57:49;;;;;;;;;;;6.60;99.90;;;;;;5064658;28;20330;-83
2022/03/29 04:00:21;;;;;;;;;;;6.60;99.90;;;;;;5054760;28;20019;-83
2022/03/29 04:02:49;;;;;;;;;;;6.60;99.90;;;;;;5054053;28;20340;-82
2022/03/29 04:05:16;;;;;;;;;;;6.60;99.90;;;;;;5067980;28;20011;-82
2022/03/29 04:07:43;;;;;;;;;;;6.50;97.90;;;;;;5074376;28;19961;-83
2022/03/29 04:10:10;;;;;;;;;;;6.50;90.30;;;;;;5074372;28;19924;-83
2022/03/29 04:12:38;;;;;;;;;;;6.50;76.60;;;;;;5073638;28;20322;-82
2022/03/29 04:15:06;;;;;;;;;;;6.50;76.80;;;;;;5068803;28;19929;-82
2022/03/29 04:17:32;;;;;;;;;;;6.50;60.70;;;;;;5054008;28;19925;-82
2022/03/29 04:19:59;;;;;;;;;;;6.50;37.20;;;;;;5054189;28;19924;-82
2022/03/29 04:22:26;;;;;;;;;;;6.50;24.70;;;;;;5053659;28;20397;-82
2022/03/29 04:24:53;;;;;;;;;;;6.50;11.10;;;;;;5065981;28;19925;-82
2022/03/29 04:27:20;;;;;;;;;;;6.50;1.00;;;;;;5074222;28;19924;-82
2022/03/29 04:29:48;;;;;;;;;;;6.50;1.00;;;;;;5073594;28;20050;-82
2022/03/29 04:32:15;;;;;;;;;;;6.50;1.00;;;;;;5058210;28;19924;-82
2022/03/29 04:34:44;;;;;;;;;;;6.40;1.00;;;;;;5073879;28;19928;-82
2022/03/29 04:37:11;;;;;;;;;;;6.40;1.00;;;;;;5076306;28;20101;-83
2022/03/29 04:39:38;;;;;;;;;;;6.40;1.00;;;;;;5073809;28;19927;-83
2022/03/29 04:42:05;;;;;;;;;;;6.40;1.00;;;;;;5081123;28;19924;-83
2022/03/29 04:44:32;;;;;;;;;;;6.40;1.00;;;;;;5072777;28;19924;-83
2022/03/29 04:47:00;;;;;;;;;;;6.40;1.00;;;;;;5073363;28;19920;-83
2022/03/29 04:49:27;;;;;;;;;;;6.40;1.00;;;;;;5073087;28;19966;-83
2022/03/29 04:51:54;;;;;;;;;;;6.40;1.00;;;;;;5073395;28;19970;-83
2022/03/29 04:54:21;;;;;;;;;;;6.40;1.00;;;;;;5073466;28;19920;-83
2022/03/29 04:56:47;;;;;;;;;;;6.40;1.00;;;;;;5073379;28;19977;-83
2022/03/29 04:59:15;;;;;;;;;;;6.40;1.00;;;;;;5074466;28;19920;-83
2022/03/29 05:01:41;;;;;;;;;;;6.40;1.00;;;;;;5075620;28;20003;-83
2022/03/29 05:04:10;;;;;;;;;;;6.40;1.00;;;;;;5072330;28;19920;-82
2022/03/29 05:06:36;;;;;;;;;;;6.40;2.20;;;;;;5075944;28;19963;-81
2022/03/29 05:09:04;;;;;;;;;;;6.40;10.60;;;;;;5077701;28;19924;-86
2022/03/29 05:11:31;;;;;;;;;;;6.40;8.30;;;;;;5076134;28;19983;-83
2022/03/29 05:13:58;;;;;;;;;;;6.40;6.80;;;;;;5075318;28;19920;-83
2022/03/29 05:16:24;;;;;;;;;;;6.50;8.50;;;;;;5074344;28;19928;-83
2022/03/29 05:18:51;;;;;;;;;;;6.50;18.70;;;;;;5072854;28;19920;-83
2022/03/29 05:21:19;;;;;;;;;;;6.50;2.40;;;;;;5073162;28;19924;-82
2022/03/29 05:23:46;;;;;;;;;;;6.50;5.20;;;;;;5072746;28;19920;-83
2022/03/29 05:26:13;;;;;;;;;;;6.50;1.10;;;;;;5072734;28;19978;-84
2022/03/29 05:28:40;;;;;;;;;;;6.50;1.00;;;;;;5067789;28;20259;-82
2022/03/29 05:31:07;;;;;;;;;;;6.50;1.30;;;;;;5053055;28;20030;-83
2022/03/29 05:33:33;;;;;;;;;;;6.50;1.00;;;;;;5052942;28;19920;-81
2022/03/29 05:36:00;;;;;;;;;;;6.60;1.00;;;;;;5072587;28;19974;-82
2022/03/29 05:38:29;;;;;;;;;;;6.60;1.00;;;;;;5073464;28;19966;-84
2022/03/29 05:40:56;;;;;;;;;;;6.60;1.00;;;;;;5073765;28;19921;-84
2022/03/29 05:43:25;;;;;;;;;;;6.60;1.00;;;;;;5072994;28;19928;-85
2022/03/29 05:51:18;;;;;;;;;;;6.60;1.00;;;;;;5073010;28;19951;-82
2022/03/29 05:53:46;;;;;;;;;;;6.60;1.00;;;;;;5072999;28;19921;-82
2022/03/29 05:56:15;;;;;;;;;;;6.70;1.00;;;;;;5073950;28;19977;-83
2022/03/29 05:58:42;;;;;;;;;;;6.70;1.00;;;;;;5073095;28;19927;-84
2022/03/29 06:01:09;;;;;;;;;;;6.70;1.00;;;;;;5072969;28;19928;-83
2022/03/29 06:03:36;;;;;;;;;;;6.80;1.00;;;;;;5072771;28;19920;-83
2022/03/29 06:06:03;;;;;;;;;;;6.90;1.00;;;;;;5073142;28;19924;-82
2022/03/29 06:08:32;;;;;;;;;;;6.90;1.00;;;;;;5074107;28;20380;-84
2022/03/29 06:11:00;;;;;;;;;;;7.00;1.00;;;;;;5071982;28;20292;-82
2022/03/29 06:13:27;;;;;;;;;;;7.10;1.00;;;;;;5068676;28;19921;-84
2022/03/29 06:15:54;;;;;;;;;;;7.20;1.00;;;;;;5069832;28;19921;-83
2022/03/29 06:18:21;;;;;;;;;;;7.20;1.00;;;;;;5062499;28;19963;-83
2022/03/29 06:20:50;;;;;;;;;;;7.30;1.00;;;;;;5062054;28;19928;-84
2022/03/29 06:23:17;;;;;;;;;;;7.30;1.00;;;;;;5072448;28;20306;-82
2022/03/29 06:25:44;;;;;;;;;;;7.40;1.00;;;;;;5073099;28;19926;-84
2022/03/29 06:28:14;;;;;;;;;;;7.50;1.00;;;;;;5072874;28;19927;-83
2022/03/29 06:30:40;;;;;;;;;;;7.50;1.00;;;;;;5069544;28;19920;-84
2022/03/29 06:33:10;;;;;;;;;;;7.60;1.00;;;;;;5071849;28;19920;-83
2022/03/29 06:35:38;;;;;;;;;;;7.70;1.00;;;;;;5052231;28;19920;-81
2022/03/29 06:38:05;;;;;;;;;;;7.80;1.00;;;;;;5068668;28;20281;-84
2022/03/29 06:40:32;;;;;;;;;;;7.80;99.90;;;;;;5074035;28;19927;-82
2022/03/29 06:43:00;;;;;;;;;;;7.70;99.90;;;;;;5075258;28;20376;-83
2022/03/29 06:45:31;;;;;;;;;;;7.70;99.90;;;;;;5077857;28;20025;-86
2022/03/29 06:48:03;;;;;;;;;;;7.70;99.90;;;;;;5075087;28;19942;-83
2022/03/29 06:50:31;;;;;;;;;;;7.60;99.90;;;;;;5076802;28;19920;-84
2022/03/29 06:53:00;;;;;;;;;;;7.60;99.90;;;;;;5076862;28;19962;-85
2022/03/29 06:55:28;;;;;;;;;;;7.60;99.90;;;;;;5074894;28;19947;-82
2022/03/29 06:57:54;;;;;;;;;;;7.60;99.90;;;;;;5055866;28;19939;-83
2022/03/29 07:00:21;;;;;;;;;;;7.50;99.90;;;;;;5057108;28;20377;-84
2022/03/29 07:02:50;;;;;;;;;;;7.50;99.90;;;;;;5057391;28;20263;-83
2022/03/29 07:05:20;;;;;;;;;;;7.40;99.90;;;;;;5075030;28;19920;-85
2022/03/29 07:07:47;;;;;;;;;;;7.50;99.90;;;;;;5076254;28;19959;-83
2022/03/29 07:12:59;;;;;;;;;;;7.70;99.90;;;;;;5056717;28;20681;-82
2022/03/29 07:15:35;;;;;;;;;;;7.80;99.90;;;;;;5056019;28;19921;-83
2022/03/29 07:18:03;;;;;;;;;;;7.80;99.90;;;;;;5062549;28;19966;-82
2022/03/29 07:20:30;;;;;;;;;;;7.90;99.90;;;;;;5074329;28;20320;-82
2022/03/29 07:22:57;;;;;;;;;;;8.00;99.90;;;;;;5074914;28;19977;-84
2022/03/29 07:25:25;;;;;;;;;;;8.10;99.90;;;;;;5074979;28;20369;-83
2022/03/29 07:27:53;;;;;;;;;;;8.10;99.90;;;;;;5059808;28;20019;-86
2022/03/29 07:30:21;;;;;;;21.77;11.60;;;8.20;99.90;;;;;;5054422;28;20090;-82
2022/03/29 07:32:49;;;;;;;20.00;10.77;;;8.30;99.90;;;;;;5056586;28;20665;-81
2022/03/29 07:35:20;;;;;;;24.63;12.33;;;8.30;99.90;;;;;;5074271;28;20200;-82
2022/03/29 07:37:48;;;;;;;27.43;13.33;;;8.40;99.90;;;;;;5074894;28;20180;-82
2022/03/29 07:40:17;;;;;;;26.17;12.67;;;8.60;99.90;;;;;;5074355;28;20242;-82
2022/03/29 07:42:44;;;;;;;27.50;12.40;;;8.70;99.90;;;;;;5074970;28;20196;-82
2022/03/29 07:45:12;;;;;;;24.00;13.00;;;8.80;99.90;;;;;;5074792;28;20714;-82
2022/03/29 07:47:43;;;;;;;38.67;16.67;;;9.00;99.90;;;;;;5063415;28;20260;-86
2022/03/29 07:50:12;;;;;;;41.70;17.53;;;9.10;99.90;;;;;;5054985;28;20190;-83
2022/03/29 07:52:42;;;;;;;32.83;14.80;;;9.20;99.90;;;;;;5058453;28;20725;-82
2022/03/29 07:55:11;;;;;;;57.27;22.67;;;9.40;99.90;;;;;;5074599;28;20236;-83
2022/03/29 07:57:39;;;;;;;50.50;21.27;;;9.60;99.90;;;;;;5061522;28;20280;-82
2022/03/29 08:02:49;;;;;;;23.80;10.80;;;9.90;73.20;;;;;;5072620;28;20627;-82
2022/03/29 08:05:16;;;;;;;25.97;13.63;;;10.10;66.70;;;;;;5070642;28;20192;-82
2022/03/29 08:07:45;;;;;;;27.03;13.13;;;10.30;37.70;;;;;;5069022;28;20652;-82
2022/03/29 08:10:12;;;;;;;21.30;11.47;;;10.40;1.00;;;;;;5074881;28;20281;-87
2022/03/29 08:12:43;;;;;;;52.80;23.07;;;10.50;1.00;;;;;;5075258;28;20215;-81
2022/03/29 08:15:11;;;;;;;31.57;14.90;;;10.60;1.00;;;;;;5074972;28;20192;-84
2022/03/29 08:17:45;;;;;;;21.73;10.90;;;10.90;1.00;;;;;;5074013;28;20590;-83
2022/03/29 08:20:30;;;;;;;39.13;18.87;;;11.10;1.00;;;;;;5067014;28;20643;-83
2022/03/29 08:23:00;;;;;;;60.93;29.03;;;11.40;1.00;;;;;;5070779;28;20212;-82
2022/03/29 08:25:29;;;;;;;21.97;12.13;;;11.50;1.00;;;;;;5067123;28;20739;-83
2022/03/29 08:27:56;;;;;;;20.00;11.20;;;11.50;1.00;;;;;;5058929;28;20194;-84
2022/03/29 08:30:24;;;;;;;18.43;10.67;;;11.50;1.00;;;;;;5071521;28;20557;-82
2022/03/29 08:32:52;;;;;;;19.63;11.20;;;11.50;1.00;;;;;;5074845;28;20218;-83
2022/03/29 08:35:27;;;;;;;26.97;14.60;;;11.40;1.00;;;;;;5074711;28;20196;-82
2022/03/29 08:37:54;;;;;;;35.13;14.33;;;11.30;1.00;;;;;;5075434;28;20190;-83
2022/03/29 08:40:26;;;;;;;24.20;13.87;;;11.00;1.00;;;;;;5073357;28;20198;-82
2022/03/29 08:42:54;;;;;;;23.63;13.90;;;10.90;1.00;;;;;;5055484;28;20196;-82
2022/03/29 08:45:26;;;;;;;20.43;12.37;;;10.60;1.00;;;;;;5068273;28;20196;-81
2022/03/29 08:47:56;;;;;;;24.83;13.17;;;10.40;1.00;;;;;;5076761;28;20193;-81
2022/03/29 08:50:25;;;;;;;21.27;14.10;;;10.20;1.00;;;;;;5074956;28;20199;-81
2022/03/29 08:52:53;;;;;;;33.50;12.67;;;10.10;1.00;;;;;;5061060;28;20231;-83
2022/03/29 08:55:23;;;;;;;25.63;13.50;;;10.10;1.00;;;;;;5055916;28;20197;-81
2022/03/29 08:57:54;;;;;;;24.43;13.90;;;10.00;1.00;;;;;;5054310;28;20201;-83
2022/03/29 09:00:23;;;;;;;20.43;10.77;;;10.00;1.00;;;;;;5055073;28;20253;-82
2022/03/29 09:02:51;;;;;;;27.13;16.37;;;10.10;1.00;;;;;;5062264;28;20559;-81
2022/03/29 09:05:23;;;;;;;27.93;20.03;;;10.20;1.00;;;;;;5054589;28;20188;-83
2022/03/29 09:07:53;;;;;;;59.90;18.93;;;10.30;1.00;;;;;;5064679;28;20248;-82
2022/03/29 09:10:23;;;;;;;23.53;15.20;;;10.30;1.00;;;;;;5052966;28;20228;-82
2022/03/29 09:12:50;;;;;;;24.37;15.20;;;10.40;1.00;;;;;;5053333;28;20194;-81
2022/03/29 09:15:17;;;;;;;24.93;17.27;;;10.50;1.00;;;;;;5052863;28;20618;-83
2022/03/29 09:17:46;;;;;;;27.30;16.93;;;10.60;1.00;;;;;;5053779;28;20556;-84
2022/03/29 09:20:16;;;;;;;30.07;17.10;;;10.70;1.00;;;;;;5053405;28;20189;-81
2022/03/29 09:22:48;;;;;;;31.27;19.33;;;10.80;1.00;;;;;;5057628;28;20672;-81
2022/03/29 09:25:18;;;;;;;25.33;14.40;;;11.00;1.00;;;;;;5061262;28;20201;-84
2022/03/29 09:28:00;;;;;;;30.73;15.27;;;11.10;1.00;;;;;;5075818;28;20541;-82
2022/03/29 09:30:39;;;;;;;17.93;11.00;;;11.00;1.00;;;;;;5069495;28;20185;-82
2022/03/29 09:33:09;;;;;;;18.73;10.17;;;10.90;1.00;;;;;;5068186;28;20218;-85
2022/03/29 09:35:52;;;;;;;18.37;10.67;;;10.70;1.00;;;;;;5073809;28;20196;-83
2022/03/29 09:38:30;;;;;;;18.23;10.63;;;10.60;1.00;;;;;;5067035;28;20616;-81
2022/03/29 09:40:58;;;;;;;20.33;10.40;;;10.60;1.00;;;;;;5054671;28;20193;-84
2022/03/29 09:43:31;;;;;;;32.47;13.43;;;10.70;1.00;;;;;;5056595;28;20277;-84
2022/03/29 09:46:07;;;;;;;18.27;10.13;;;10.90;1.00;;;;;;5059100;28;20204;-82
2022/03/29 09:48:37;;;;;;;17.57;9.90;;;11.10;1.00;;;;;;5058258;28;20238;-83
2022/03/29 09:51:26;;;;;;;14.83;9.13;;;11.20;1.00;;;;;;5055411;28;20279;-82
2022/03/29 09:53:55;;;;;;;22.07;10.57;;;11.30;1.00;;;;;;5079336;28;20259;-84
2022/03/29 09:56:26;;;;;;;20.83;10.70;;;11.30;1.00;;;;;;5072049;28;20314;-83
2022/03/29 09:59:11;;;;;;;28.60;11.87;;;11.40;1.00;;;;;;5074771;28;20188;-82
2022/03/29 10:01:49;;;;;;;20.80;11.43;;;11.50;1.00;;;;;;5061355;28;20210;-82
2022/03/29 10:04:23;;;;;;;25.70;14.83;;;11.60;1.00;;;;;;5054815;28;20735;-85
2022/03/29 10:06:52;;;;;;;30.70;21.70;;;11.70;1.00;;;;;;5055726;28;20259;-82
2022/03/29 10:09:29;;;;;;;23.67;13.53;;;12.10;1.00;;;;;;5050226;28;20321;-82
2022/03/29 10:11:58;;;;;;;24.30;15.37;;;12.20;1.00;;;;;;5050563;28;20235;-83
2022/03/29 10:14:38;;;;;;;32.70;21.17;;;12.20;1.00;;;;;;5051044;28;20199;-85
2022/03/29 10:17:06;;;;;;;34.03;16.73;;;12.40;1.00;;;;;;5063434;28;20187;-82
2022/03/29 10:19:34;;;;;;;23.20;14.23;;;12.60;1.00;;;;;;5061133;28;20211;-84
2022/03/29 10:22:03;;;;;;;24.03;16.23;;;12.90;1.00;;;;;;5068073;28;20243;-84
2022/03/29 10:24:31;;;;;;;27.67;17.40;;;13.10;1.00;;;;;;5066372;28;20220;-82
2022/03/29 10:27:00;;;;;;;39.60;24.73;;;13.20;1.00;;;;;;5066362;28;20189;-82
2022/03/29 10:29:30;;;;;;;23.23;15.47;;;13.20;1.00;;;;;;5059735;28;20200;-84
2022/03/29 10:32:00;;;;;;;23.13;12.50;;;13.30;1.00;;;;;;5056110;28;20661;-84
2022/03/29 10:34:31;;;;;;;21.80;13.77;;;13.20;1.00;;;;;;5060676;28;20207;-82
2022/03/29 10:37:22;;;;;;;19.30;12.57;;;13.00;1.00;;;;;;5071362;28;20286;-84
2022/03/29 10:39:52;;;;;;;19.10;12.07;;;12.90;1.00;;;;;;5077042;28;20255;-82
2022/03/29 10:42:40;;;;;;;22.17;9.97;;;12.80;1.00;;;;;;5077824;28;20223;-85
2022/03/29 10:45:24;;;;;;;17.97;11.73;;;12.80;1.00;;;;;;5074771;28;20239;-82
2022/03/29 10:48:14;;;;;;;32.87;17.80;;;12.80;1.00;;;;;;5078656;28;20197;-81
2022/03/29 10:50:59;;;;;;;55.97;25.67;;;12.80;1.00;;;;;;5070123;28;20188;-82
2022/03/29 10:53:32;;;;;;;47.13;19.50;;;12.80;1.00;;;;;;5079504;28;20188;-81
2022/03/29 10:56:22;;;;;;;34.83;15.33;;;13.00;1.00;;;;;;5078531;28;20265;-82
2022/03/29 10:59:14;;;;;;;46.87;22.00;;;13.20;1.00;;;;;;5074746;28;20242;-83
2022/03/29 11:01:43;;;;;;;18.90;10.37;;;13.20;1.00;;;;;;5055758;28;20193;-81
2022/03/29 11:04:20;;;;;;;19.87;10.47;;;13.20;1.00;;;;;;5063400;28;20224;-83
2022/03/29 11:07:14;;;;;;;16.30;8.67;;;13.20;1.00;;;;;;5077808;28;20193;-81
2022/03/29 11:09:44;;;;;;;40.80;20.10;;;13.20;1.00;;;;;;5073346;28;20223;-83
2022/03/29 11:12:46;;;;;;;14.73;8.33;;;13.20;1.00;;;;;;5074952;28;20701;-81
2022/03/29 11:15:39;;;;;;;19.63;9.53;;;13.20;1.00;;;;;;5060266;28;20715;-81
2022/03/29 11:18:37;;;;;;;17.67;9.37;;;13.10;1.00;;;;;;5057165;28;20185;-82
2022/03/29 11:21:06;;;;;;;15.80;8.03;;;13.00;1.00;;;;;;5076610;28;20659;-81
2022/03/29 11:23:34;;;;;;;30.07;14.77;;;12.90;1.00;;;;;;5055139;28;20189;-82
2022/03/29 11:26:08;;;;;;;48.60;22.67;;;12.80;1.00;;;;;;5057489;28;20204;-81
2022/03/29 11:28:36;;;;;;;16.83;9.17;;;12.80;1.00;;;;;;5062254;28;20195;-81
2022/03/29 11:31:04;;;;;;;24.50;12.73;;;12.90;1.00;;;;;;5075224;28;20630;-81
2022/03/29 11:33:34;;;;;;;17.93;10.13;;;13.10;1.00;;;;;;5079823;28;20189;-82
2022/03/29 11:36:06;;;;;;;43.70;22.20;;;13.10;1.00;;;;;;5062822;28;20201;-81
2022/03/29 11:38:39;;;;;;;19.03;10.43;;;13.10;1.00;;;;;;5064511;28;20187;-85
2022/03/29 11:41:19;;;;;;;16.50;9.40;;;13.10;1.00;;;;;;5074403;28;20185;-84
2022/03/29 11:43:52;;;;;;;19.53;9.10;;;13.10;1.00;;;;;;5079191;28;20198;-81
2022/03/29 11:46:19;;;;;;;53.03;13.03;;;13.20;1.00;;;;;;5077358;28;20212;-83
2022/03/29 11:48:53;;;;;;;15.93;7.70;;;13.30;1.00;;;;;;5080385;28;20218;-85
2022/03/29 11:51:21;;;;;;;16.77;9.63;;;13.50;1.00;;;;;;5071151;28;20188;-81
2022/03/29 11:53:58;;;;;;;25.17;11.77;;;13.60;1.00;;;;;;5076622;28;20196;-82
2022/03/29 11:56:25;;;;;;;24.37;12.07;;;13.60;1.00;;;;;;5072626;28;20271;-82
2022/03/29 11:58:53;;;;;;;17.50;11.10;;;13.60;1.00;;;;;;5054382;28;20608;-83
2022/03/29 12:01:22;;;;;;;23.47;14.37;;;13.50;1.00;;;;;;5056264;28;20560;-83
2022/03/29 12:03:55;;;;;;;15.43;9.10;;;13.50;1.00;;;;;;5061804;28;20193;-83
2022/03/29 12:06:25;;;;;;;16.20;9.97;;;13.60;1.00;;;;;;5074646;28;20277;-82
2022/03/29 12:08:55;;;;;;;18.00;10.13;;;13.90;1.00;;;;;;5074301;28;20639;-81
2022/03/29 12:11:25;;;;;;;33.10;13.10;;;14.00;1.00;;;;;;5069845;28;20187;-82
2022/03/29 12:14:02;;;;;;;17.53;10.20;;;14.10;1.00;;;;;;5069564;28;20193;-83
2022/03/29 12:16:30;;;;;;;18.47;11.83;;;14.00;1.00;;;;;;5075619;28;20222;-83
2022/03/29 12:18:59;;;;;;;29.07;18.10;;;13.90;1.00;;;;;;5077602;28;20206;-81
2022/03/29 12:21:31;;;;;;;19.40;10.50;;;13.80;1.00;;;;;;5057887;28;20602;-83
2022/03/29 12:24:02;;;;;;;27.70;14.40;;;13.50;1.00;;;;;;5054440;28;20268;-81
2022/03/29 12:26:31;;;;;;;27.37;14.23;;;13.40;1.00;;;;;;5074777;28;20185;-84
2022/03/29 12:28:59;;;;;;;24.80;13.57;;;13.30;1.00;;;;;;5074887;28;20253;-82
2022/03/29 12:31:28;;;;;;;19.53;10.43;;;13.40;1.00;;;;;;5075251;28;20217;-83
2022/03/29 12:33:56;;;;;;;18.20;11.00;;;13.50;1.00;;;;;;5075630;28;20221;-84
2022/03/29 12:36:25;;;;;;;20.57;8.87;;;13.70;1.00;;;;;;5073789;28;20245;-82
2022/03/29 12:38:54;;;;;;;16.20;7.83;;;13.70;1.00;;;;;;5072299;28;20197;-83
2022/03/29 12:41:37;;;;;;;17.63;6.93;;;13.90;1.00;;;;;;5055077;28;20199;-84
2022/03/29 12:44:06;;;;;;;16.83;7.00;;;14.20;1.00;;;;;;5054597;28;20688;-82
2022/03/29 12:46:34;;;;;;;9.93;6.40;;;14.40;1.00;;;;;;5055698;28;20647;-82
2022/03/29 12:49:02;;;;;;;20.47;6.90;;;14.50;1.00;;;;;;5053641;28;20281;-81
2022/03/29 12:51:34;;;;;;;14.63;6.77;;;14.40;1.00;;;;;;5067797;28;20185;-84
2022/03/29 12:54:04;;;;;;;14.20;7.50;;;14.00;1.00;;;;;;5075965;28;20183;-82
2022/03/29 12:56:37;;;;;;;10.93;6.67;;;13.80;1.00;;;;;;5057584;28;21000;-82
2022/03/29 12:59:31;;;;;;;11.43;6.30;;;13.50;1.00;;;;;;5063610;28;20199;-87
2022/03/29 13:02:11;;;;;;;14.80;6.60;;;13.40;1.00;;;;;;5060456;28;20203;-82
2022/03/29 13:04:40;;;;;;;14.33;6.70;;;13.20;1.00;;;;;;5062220;28;20227;-82
2022/03/29 13:07:09;;;;;;;12.37;6.77;;;13.20;1.00;;;;;;5057960;28;20292;-84
2022/03/29 13:09:37;;;;;;;14.23;6.47;;;13.20;1.00;;;;;;5056332;28;20232;-83
2022/03/29 13:12:22;;;;;;;13.63;6.27;;;13.10;1.00;;;;;;5070471;28;20188;-83
2022/03/29 13:14:49;;;;;;;15.93;6.47;;;13.00;1.00;;;;;;5062134;28;20196;-83
2022/03/29 13:17:17;;;;;;;13.53;6.83;;;12.90;1.00;;;;;;5079593;28;20228;-83
2022/03/29 13:19:54;;;;;;;15.23;7.07;;;12.80;1.00;;;;;;5072788;28;20194;-81
2022/03/29 13:22:22;;;;;;;11.70;7.37;;;12.90;1.00;;;;;;5063503;28;20280;-81
2022/03/29 13:24:52;;;;;;;11.63;6.13;;;12.80;1.00;;;;;;5056963;28;20344;-83
2022/03/29 13:27:19;;;;;;;10.37;6.07;;;12.60;1.00;;;;;;5062132;28;20693;-83
2022/03/29 13:29:46;;;;;;;13.33;5.70;;;12.60;1.00;;;;;;5054885;28;20187;-82
2022/03/29 13:32:15;;;;;;;13.37;6.73;;;12.50;1.00;;;;;;5054230;28;20264;-82
2022/03/29 13:34:43;;;;;;;16.13;7.33;;;12.40;1.00;;;;;;5070641;28;20204;-82